createdAt,value
2023-05-14T00:02:03.389Z,14.65
2023-05-14T00:04:30.662Z,15.60
2023-05-14T00:06:58.869Z,18.73
2023-05-14T00:09:25.872Z,18.60
2023-05-14T00:11:53.233Z,15.15
2023-05-14T00:14:21.067Z,15.50
2023-05-14T00:16:48.455Z,18.20
2023-05-14T00:19:15.692Z,18.55
2023-05-14T00:21:43.133Z,16.05
2023-05-14T00:24:10.202Z,12.77
2023-05-14T00:26:37.490Z,16.63
2023-05-14T00:29:04.894Z,16.60
2023-05-14T00:31:32.307Z,14.38
2023-05-14T00:33:59.425Z,16.33
2023-05-14T00:36:26.765Z,14.77
2023-05-14T00:38:53.869Z,17.73
2023-05-14T00:41:21.842Z,16.98
2023-05-14T00:43:48.825Z,14.18
2023-05-14T00:46:18.138Z,16.38
2023-05-14T00:48:46.740Z,15.40
2023-05-14T00:51:19.999Z,15.75
2023-05-14T00:53:47.688Z,17.48
2023-05-14T00:56:16.643Z,23.73
2023-05-14T00:58:43.832Z,19.52
2023-05-14T01:01:12.341Z,16.10
2023-05-14T01:03:39.620Z,17.05
2023-05-14T01:06:16.079Z,17.38
2023-05-14T01:09:14.055Z,17.65
2023-05-14T01:11:55.713Z,15.73
2023-05-14T01:14:33.186Z,15.23
2023-05-14T01:17:04.266Z,15.93
2023-05-14T01:19:34.589Z,15.55
2023-05-14T01:22:01.894Z,13.48
2023-05-14T01:24:29.131Z,14.15
2023-05-14T01:27:03.907Z,16.23
2023-05-14T01:29:32.735Z,13.43
2023-05-14T01:32:01.177Z,15.77
2023-05-14T01:34:31.422Z,14.00
2023-05-14T01:37:00.549Z,12.75
2023-05-14T01:39:28.286Z,16.85
2023-05-14T01:41:56.463Z,13.75
2023-05-14T01:44:24.111Z,14.88
2023-05-14T01:46:51.399Z,17.48
2023-05-14T01:49:19.706Z,17.88
2023-05-14T01:51:48.422Z,19.55
2023-05-14T01:54:15.556Z,16.48
2023-05-14T01:56:42.878Z,18.52
2023-05-14T01:59:10.341Z,14.32
2023-05-14T02:01:43.818Z,23.15
2023-05-14T02:04:11.081Z,23.92
2023-05-14T02:09:07.219Z,17.27
2023-05-14T02:11:34.605Z,17.23
2023-05-14T02:14:01.621Z,16.48
2023-05-14T02:16:29.748Z,16.77
2023-05-14T02:18:59.649Z,17.60
2023-05-14T02:21:50.740Z,18.52
2023-05-14T02:24:17.862Z,19.58
2023-05-14T02:26:45.336Z,15.35
2023-05-14T02:29:12.773Z,18.73
2023-05-14T02:31:41.924Z,21.48
2023-05-14T02:34:09.476Z,16.17
2023-05-14T02:36:36.855Z,15.75
2023-05-14T02:39:08.062Z,21.02
2023-05-14T02:41:38.712Z,19.58
2023-05-14T02:44:05.940Z,22.60
2023-05-14T02:46:33.654Z,18.75
2023-05-14T02:49:00.811Z,18.58
2023-05-14T02:51:29.553Z,18.63
2023-05-14T02:53:56.800Z,16.50
2023-05-14T02:56:24.199Z,18.73
2023-05-14T02:58:51.341Z,21.08
2023-05-14T03:01:19.104Z,22.27
2023-05-14T03:03:47.145Z,19.75
2023-05-14T03:06:14.603Z,17.20
2023-05-14T03:08:43.144Z,16.73
2023-05-14T03:11:11.508Z,17.90
2023-05-14T03:13:38.480Z,21.23
2023-05-14T03:16:06.032Z,16.60
2023-05-14T03:18:34.865Z,21.20
2023-05-14T03:21:03.964Z,19.65
2023-05-14T03:23:35.118Z,16.00
2023-05-14T03:26:02.571Z,25.13
2023-05-14T03:28:29.756Z,16.70
2023-05-14T03:30:57.720Z,19.70
2023-05-14T03:33:26.889Z,21.52
2023-05-14T03:35:54.235Z,15.93
2023-05-14T03:38:23.280Z,16.13
2023-05-14T03:40:50.694Z,18.92
2023-05-14T03:43:18.054Z,14.30
2023-05-14T03:45:45.627Z,16.35
2023-05-14T03:48:13.015Z,22.17
2023-05-14T03:50:40.636Z,18.00
2023-05-14T03:53:12.180Z,18.45
2023-05-14T03:55:42.572Z,12.25
2023-05-14T03:58:14.339Z,15.93
2023-05-14T04:00:44.317Z,13.35
2023-05-14T04:03:13.881Z,14.88
2023-05-14T04:05:41.596Z,14.05
2023-05-14T04:08:08.753Z,17.65
2023-05-14T04:10:36.238Z,13.68
2023-05-14T04:13:05.590Z,17.05
2023-05-14T04:15:35.870Z,14.63
2023-05-14T04:18:09.476Z,18.77
2023-05-14T04:20:37.232Z,17.88
2023-05-14T04:23:05.480Z,15.57
2023-05-14T04:28:01.619Z,12.98
2023-05-14T04:30:31.165Z,13.30
2023-05-14T04:32:58.350Z,15.70
2023-05-14T04:35:25.844Z,12.40
2023-05-14T04:37:52.951Z,13.27
2023-05-14T04:40:20.489Z,15.90
2023-05-14T04:42:47.606Z,14.25
2023-05-14T04:48:08.055Z,13.73
2023-05-14T04:50:39.216Z,17.17
2023-05-14T04:53:06.467Z,17.25
2023-05-14T04:55:34.679Z,19.77
2023-05-14T04:58:01.980Z,16.52
2023-05-14T05:00:30.979Z,11.77
2023-05-14T05:03:28.532Z,11.73
2023-05-14T05:05:59.780Z,12.70
2023-05-14T05:08:26.987Z,15.73
2023-05-14T05:11:00.704Z,12.10
2023-05-14T05:16:32.954Z,18.13
2023-05-14T05:19:00.436Z,12.82
2023-05-14T05:21:28.551Z,11.80
2023-05-14T05:23:58.153Z,13.75
2023-05-14T05:26:28.279Z,14.75
2023-05-14T05:28:57.462Z,16.38
2023-05-14T05:31:26.292Z,11.85
2023-05-14T05:33:53.859Z,13.13
2023-05-14T05:36:21.604Z,10.68
2023-05-14T05:38:49.257Z,9.55
2023-05-14T05:53:11.621Z,10.65
2023-05-14T05:55:47.016Z,13.80
2023-05-14T05:58:22.723Z,15.00
2023-05-14T06:00:50.384Z,12.55
2023-05-14T06:03:19.062Z,11.68
2023-05-14T06:05:50.490Z,13.63
2023-05-14T06:08:19.473Z,10.77
2023-05-14T06:11:02.474Z,9.93
2023-05-14T06:19:18.707Z,12.23
2023-05-14T06:21:48.277Z,9.35
2023-05-14T06:24:17.723Z,11.02
2023-05-14T06:26:47.167Z,10.30
2023-05-14T06:32:11.003Z,10.63
2023-05-14T06:34:41.065Z,11.07
2023-05-14T06:39:52.414Z,7.05
2023-05-14T06:42:19.978Z,6.88
2023-05-14T06:44:47.348Z,8.38
2023-05-14T06:47:27.673Z,6.93
2023-05-14T06:49:59.387Z,5.57
2023-05-14T06:52:26.972Z,7.25
2023-05-14T06:54:54.307Z,5.65
2023-05-14T06:57:22.328Z,6.75
2023-05-14T06:59:54.248Z,9.57
2023-05-14T07:02:25.527Z,6.43
2023-05-14T07:04:52.893Z,6.70
2023-05-14T07:10:02.361Z,8.18
2023-05-14T07:12:32.800Z,13.38
2023-05-14T07:15:02.107Z,9.30
2023-05-14T07:17:30.251Z,6.55
2023-05-14T07:19:57.559Z,8.18
2023-05-14T07:22:25.606Z,9.45
2023-05-14T07:25:10.562Z,7.45
2023-05-14T07:30:20.582Z,9.27
2023-05-14T07:32:51.062Z,6.05
2023-05-14T07:35:18.953Z,6.63
2023-05-14T07:37:50.076Z,5.05
2023-05-14T07:40:17.257Z,7.90
2023-05-14T07:42:44.752Z,4.78
2023-05-14T07:45:12.293Z,8.93
2023-05-14T07:47:47.471Z,6.13
2023-05-14T07:50:19.882Z,5.28
2023-05-14T07:52:48.674Z,7.40
2023-05-14T07:55:20.432Z,6.90
2023-05-14T07:57:48.842Z,7.45
2023-05-14T08:00:19.319Z,5.32
2023-05-14T08:02:52.124Z,5.68
2023-05-14T08:05:19.636Z,5.38
2023-05-14T08:07:47.519Z,9.25
2023-05-14T08:10:14.682Z,9.75
2023-05-14T08:12:42.923Z,9.18
2023-05-14T08:15:10.636Z,7.15
2023-05-14T08:17:44.765Z,4.80
2023-05-14T08:20:14.703Z,4.68
2023-05-14T08:22:42.218Z,5.15
2023-05-14T08:25:09.481Z,3.75
2023-05-14T08:27:39.040Z,7.78
2023-05-14T08:30:06.870Z,5.72
2023-05-14T08:35:02.840Z,5.95
2023-05-14T08:37:30.538Z,8.75
2023-05-14T08:39:57.571Z,7.35
2023-05-14T08:42:26.011Z,6.28
2023-05-14T08:45:04.001Z,6.32
2023-05-14T08:47:32.070Z,4.40
2023-05-14T08:50:04.716Z,5.53
2023-05-14T08:52:36.490Z,4.68
2023-05-14T08:55:13.597Z,8.93
2023-05-14T08:57:41.447Z,5.10
2023-05-14T09:00:12.136Z,5.18
2023-05-14T09:02:40.953Z,8.75
2023-05-14T09:05:18.086Z,5.68
2023-05-14T09:07:45.950Z,5.15
2023-05-14T09:10:16.935Z,4.07
2023-05-14T09:12:44.913Z,5.43
2023-05-14T09:15:12.514Z,4.22
2023-05-14T09:17:44.139Z,5.53
2023-05-14T09:20:18.267Z,5.38
2023-05-14T09:25:30.146Z,6.25
2023-05-14T09:28:04.240Z,4.18
2023-05-14T09:30:32.541Z,5.95
2023-05-14T09:33:01.756Z,4.68
2023-05-14T09:35:29.200Z,4.85
2023-05-14T09:37:59.524Z,4.43
2023-05-14T09:40:29.062Z,4.57
2023-05-14T09:43:01.116Z,5.93
2023-05-14T09:45:33.724Z,5.10
2023-05-14T09:48:11.853Z,3.75
2023-05-14T09:53:30.338Z,4.60
2023-05-14T09:59:29.202Z,4.70
2023-05-14T10:02:30.604Z,4.07
2023-05-14T10:05:02.675Z,3.90
2023-05-14T10:07:35.546Z,4.20
2023-05-14T10:10:07.133Z,3.80
2023-05-14T10:12:42.040Z,6.65
2023-05-14T10:15:34.853Z,4.03
2023-05-14T10:24:00.900Z,7.05
2023-05-14T10:32:43.139Z,3.95
2023-05-14T10:35:22.185Z,4.20
2023-05-14T10:41:21.646Z,3.50
2023-05-14T10:43:52.594Z,5.82
2023-05-14T10:49:42.414Z,4.25
2023-05-14T10:52:13.610Z,3.65
2023-05-14T10:54:53.429Z,5.28
2023-05-14T10:57:24.832Z,5.03
2023-05-14T11:00:02.396Z,3.53
2023-05-14T11:02:34.178Z,5.50
2023-05-14T11:05:08.370Z,4.95
2023-05-14T11:10:09.166Z,4.93
2023-05-14T11:12:41.885Z,5.03
2023-05-14T11:15:11.423Z,6.20
2023-05-14T11:17:42.345Z,3.40
2023-05-14T11:20:30.496Z,4.75
2023-05-14T11:22:58.474Z,6.10
2023-05-14T11:25:26.097Z,3.40
2023-05-14T11:28:01.529Z,5.47
2023-05-14T11:32:59.319Z,2.92
2023-05-14T11:35:35.647Z,3.17
2023-05-14T11:38:03.346Z,4.57
2023-05-14T11:43:39.767Z,3.38
2023-05-14T11:46:07.243Z,5.28
2023-05-14T11:48:36.134Z,2.67
2023-05-14T11:51:05.030Z,5.22
2023-05-14T11:53:33.530Z,3.88
2023-05-14T11:56:05.680Z,5.57
2023-05-14T11:58:45.844Z,2.60
2023-05-14T12:01:16.454Z,5.07
2023-05-14T12:03:46.027Z,3.28
2023-05-14T12:06:24.002Z,7.53
2023-05-14T12:08:53.013Z,4.78
2023-05-14T12:11:22.030Z,4.55
2023-05-14T12:13:49.528Z,4.18
2023-05-14T12:16:19.156Z,5.90
2023-05-14T12:18:47.245Z,3.30
2023-05-14T12:21:14.981Z,7.13
2023-05-14T12:23:42.666Z,4.07
2023-05-14T12:26:10.541Z,4.82
2023-05-14T12:28:43.644Z,3.88
2023-05-14T12:31:11.073Z,2.78
2023-05-14T12:33:38.575Z,2.85
2023-05-14T12:36:20.731Z,4.00
2023-05-14T12:39:10.422Z,4.28
2023-05-14T12:41:37.661Z,4.38
2023-05-14T12:44:05.576Z,6.57
2023-05-14T12:46:34.551Z,3.13
2023-05-14T12:49:16.544Z,4.55
2023-05-14T12:55:22.612Z,5.88
2023-05-14T12:57:49.953Z,2.70
2023-05-14T13:00:18.695Z,5.35
2023-05-14T13:02:47.165Z,2.80
2023-05-14T13:05:14.955Z,6.93
2023-05-14T13:07:46.172Z,2.38
2023-05-14T13:10:14.206Z,3.67
2023-05-14T13:12:44.545Z,5.03
2023-05-14T13:17:42.123Z,4.15
2023-05-14T13:20:17.782Z,6.45
2023-05-14T13:22:46.144Z,5.45
2023-05-14T13:25:17.320Z,8.77
2023-05-14T13:27:47.806Z,5.70
2023-05-14T13:30:15.983Z,2.58
2023-05-14T13:32:43.205Z,3.85
2023-05-14T13:37:59.825Z,2.67
2023-05-14T13:52:26.763Z,5.00
2023-05-14T13:57:40.325Z,2.58
2023-05-14T14:00:22.399Z,3.28
2023-05-14T14:08:38.858Z,3.22
2023-05-14T14:11:06.445Z,2.90
2023-05-14T14:52:49.494Z,3.50
2023-05-14T15:14:13.412Z,4.13
2023-05-14T15:16:45.016Z,3.28
2023-05-14T15:22:24.919Z,2.85
2023-05-14T15:24:53.127Z,5.85
2023-05-14T15:27:40.991Z,2.92
2023-05-14T15:30:08.582Z,6.70
2023-05-14T15:32:36.266Z,3.45
2023-05-14T15:38:07.768Z,3.65
2023-05-14T15:46:43.325Z,4.72
2023-05-14T16:26:03.557Z,4.00
2023-05-14T16:28:34.307Z,5.20
2023-05-14T16:33:48.669Z,4.47
2023-05-14T16:39:16.468Z,4.00
2023-05-14T16:47:51.037Z,4.03
2023-05-14T16:58:37.171Z,4.30
2023-05-14T17:01:10.182Z,5.00
2023-05-14T17:03:39.037Z,7.45
2023-05-14T17:06:51.667Z,5.50
2023-05-14T17:21:59.502Z,8.95
2023-05-14T17:33:54.729Z,8.27
2023-05-14T17:36:45.344Z,6.90
2023-05-14T17:42:08.554Z,5.38
2023-05-14T17:47:35.921Z,6.43
2023-05-14T17:53:29.307Z,8.05
2023-05-14T17:55:59.722Z,5.30
2023-05-14T17:58:30.028Z,5.80
2023-05-14T18:01:01.505Z,6.00
2023-05-14T18:03:29.516Z,6.72
2023-05-14T18:05:58.606Z,6.05
2023-05-14T18:08:26.955Z,6.50
2023-05-14T18:11:04.631Z,6.07
2023-05-14T18:13:32.803Z,8.38
2023-05-14T18:16:02.453Z,4.05
2023-05-14T18:21:30.271Z,4.32
2023-05-14T18:26:57.751Z,3.85
2023-05-14T18:29:25.014Z,5.55
2023-05-14T18:37:17.281Z,4.75
2023-05-14T18:39:56.315Z,4.60
2023-05-14T18:45:25.732Z,7.07
2023-05-14T18:48:04.582Z,6.30
2023-05-14T19:05:31.476Z,5.07
2023-05-14T19:08:16.606Z,6.93
2023-05-14T19:10:45.053Z,8.48
2023-05-14T19:16:06.184Z,8.57
2023-05-14T19:18:34.814Z,6.32
2023-05-14T19:21:02.032Z,6.97
2023-05-14T19:23:40.800Z,5.63
2023-05-14T19:26:32.368Z,5.43
2023-05-14T19:34:27.674Z,5.95
2023-05-14T19:39:37.238Z,7.40
2023-05-14T19:42:05.008Z,4.03
2023-05-14T19:44:43.715Z,4.75
2023-05-14T19:47:16.752Z,9.90
2023-05-14T19:49:44.453Z,4.65
2023-05-14T19:52:37.400Z,4.22
2023-05-14T19:55:05.916Z,6.60
2023-05-14T20:00:32.066Z,8.25
2023-05-14T20:03:01.304Z,7.85
2023-05-14T20:05:28.498Z,6.32
2023-05-14T20:07:56.117Z,8.77
2023-05-14T20:10:24.315Z,5.13
2023-05-14T20:12:51.814Z,9.07
2023-05-14T20:15:19.102Z,8.55
2023-05-14T20:17:46.660Z,10.50
2023-05-14T20:20:14.252Z,17.67
2023-05-14T20:22:42.970Z,8.13
2023-05-14T20:25:10.353Z,8.25
2023-05-14T20:27:37.992Z,7.93
2023-05-14T20:30:05.990Z,8.07
2023-05-14T20:32:33.792Z,4.93
2023-05-14T20:35:02.338Z,8.55
2023-05-14T20:37:32.525Z,8.90
2023-05-14T20:40:01.306Z,7.93
2023-05-14T20:42:29.057Z,9.57
2023-05-14T20:44:56.382Z,6.03
2023-05-14T20:47:26.862Z,6.90
2023-05-14T20:49:54.142Z,8.00
2023-05-14T20:58:03.667Z,6.15
